KOPF/OPF METAR and TAF weather

Enter ICAO airport designator
Station Type Date Time Source
KOPF METAR 2021/07/29 00:53 UTC NOAA

KOPF 290053Z 33005KT 10SM CLR 28/22 A3004 RMK AO2 SLP174 T02780222 $


Station Type Date Time Source
KOPF Decoded METAR 2021/07/29 00:53 UTC NOAA

MIAMI OPA LOCKA AIRPORT, FL, United States (KOPF) 25-54N 80-17W 16M
Jul 28, 2021 - 08:53 PM EDT / 2021.07.29 0053 UTC
Wind: from the NNW (330 degrees) at 6 MPH (5 KT):0
Visibility: 10 mile(s):0
Sky conditions: clear
Temperature: 82.0 F (27.8 C)
Dew Point: 72.0 F (22.2 C)
Relative Humidity: 71%
Pressure (altimeter): 30.04 in. Hg (1017 hPa)
ob: KOPF 290053Z 33005KT 10SM CLR 28/22 A3004 RMK AO2 SLP174 T02780222
cycle: 1

Station Type Date Time Source
KOPF TAF 2021/07/28 21:06 UTC NOAA

TAF
AMD KOPF 282104Z 2821/2918 02006KT P6SM VCTS SCT030CB BKN040
FM290100 15005KT P6SM VCSH SCT030 BKN040
FM291600 14007KT P6SM VCTS SCT025CB BKN050

Example: see airport list